createdAt,value
2023-01-15T11:36:35.834Z,7.40
2023-01-15T11:42:17.736Z,6.40
2023-01-15T11:45:11.373Z,8.10
2023-01-15T11:50:55.229Z,8.10
2023-01-15T11:56:35.960Z,8.20
2023-01-15T11:59:13.549Z,7.90
2023-01-15T12:01:57.369Z,7.90
2023-01-15T12:07:31.847Z,8.00
2023-01-15T12:16:13.912Z,7.70
2023-01-15T12:18:58.612Z,8.30
2023-01-15T12:25:03.065Z,8.10
2023-01-15T12:36:20.935Z,8.10
2023-01-15T12:38:52.273Z,8.10
2023-01-15T12:44:45.857Z,8.10
2023-01-15T12:47:20.516Z,8.10
2023-01-15T12:49:53.535Z,8.10
2023-01-15T12:52:29.255Z,8.10
2023-01-15T12:58:13.197Z,8.10
2023-01-15T13:01:04.367Z,8.20
2023-01-15T13:03:40.145Z,8.10
2023-01-15T13:06:18.726Z,8.10
2023-01-15T13:11:42.854Z,8.20
2023-01-15T13:17:30.491Z,8.10
2023-01-15T13:20:15.125Z,8.10
2023-01-15T13:22:53.435Z,8.00
2023-01-15T13:25:42.658Z,8.10
2023-01-15T13:28:30.799Z,8.10
2023-01-15T13:31:07.506Z,8.20
2023-01-15T13:39:37.012Z,8.20
2023-01-15T13:42:23.421Z,8.20
2023-01-15T13:45:19.149Z,8.30
2023-01-15T13:51:31.272Z,8.20
2023-01-15T13:54:01.103Z,8.20
2023-01-15T13:56:31.709Z,8.30
2023-01-15T14:08:26.852Z,8.20
2023-01-15T14:10:54.963Z,8.20
2023-01-15T14:13:53.199Z,8.10
2023-01-15T14:16:43.512Z,8.10
2023-01-15T14:25:30.072Z,7.90
2023-01-15T14:28:12.529Z,8.10
2023-01-15T14:31:17.403Z,8.10
2023-01-15T14:33:58.490Z,5.30
2023-01-15T14:36:28.593Z,7.90
2023-01-15T14:38:59.035Z,8.00
2023-01-15T14:41:28.335Z,8.00
2023-01-15T14:43:55.493Z,8.10
2023-01-15T14:49:48.822Z,8.10
2023-01-15T14:52:16.931Z,7.90
2023-01-15T14:54:45.735Z,8.00
2023-01-15T14:57:15.853Z,8.00
2023-01-15T14:59:49.810Z,8.00
2023-01-15T15:02:23.116Z,7.80
2023-01-15T15:04:54.626Z,7.80
2023-01-15T15:07:24.542Z,7.60
2023-01-15T15:09:57.135Z,7.70
2023-01-15T15:12:37.819Z,7.50
2023-01-15T15:23:35.189Z,7.20
2023-01-15T15:26:25.644Z,7.20
2023-01-15T15:28:57.636Z,7.10
2023-01-15T15:31:26.354Z,7.10
2023-01-15T15:33:56.433Z,7.00
2023-01-15T15:36:31.529Z,7.00
2023-01-15T15:39:03.842Z,7.00
2023-01-15T15:47:43.443Z,5.90
2023-01-15T15:50:20.268Z,7.10
2023-01-15T15:55:45.459Z,5.90
2023-01-15T15:58:21.665Z,7.10
2023-01-15T16:03:59.241Z,7.00
2023-01-15T16:06:27.819Z,6.70
2023-01-15T16:09:04.145Z,6.80
2023-01-15T16:12:06.631Z,6.80
2023-01-15T16:14:36.917Z,6.70
2023-01-15T16:17:04.735Z,6.70
2023-01-15T16:25:43.018Z,6.60
2023-01-15T16:28:25.265Z,6.70
2023-01-15T16:30:57.951Z,6.60
2023-01-15T16:33:27.405Z,6.60
2023-01-15T16:38:50.038Z,6.50
2023-01-15T16:41:21.319Z,6.50
2023-01-15T16:53:30.999Z,5.20
2023-01-15T16:56:00.800Z,6.90
2023-01-15T16:58:36.518Z,6.90
2023-01-15T17:01:34.202Z,6.90
2023-01-15T17:04:04.004Z,6.80
2023-01-15T17:06:32.798Z,6.90
2023-01-15T17:09:00.608Z,7.00
2023-01-15T17:11:29.511Z,7.00
2023-01-15T17:14:17.768Z,7.00
2023-01-15T17:19:47.274Z,7.00
2023-01-15T17:31:31.443Z,7.10
2023-01-15T17:34:00.214Z,7.00
2023-01-15T17:36:28.085Z,7.00
2023-01-15T17:38:55.566Z,7.10
2023-01-15T17:41:23.724Z,7.00
2023-01-15T17:49:57.841Z,7.00
2023-01-15T17:52:25.444Z,7.10
2023-01-15T17:58:06.019Z,7.00
2023-01-15T18:00:51.868Z,7.00
2023-01-15T18:03:41.705Z,7.00
2023-01-15T18:09:07.687Z,7.10
2023-01-15T18:11:35.556Z,7.00
2023-01-15T18:14:03.220Z,7.00
2023-01-15T18:16:47.272Z,7.10
2023-01-15T18:19:16.928Z,7.10
2023-01-15T18:21:59.189Z,7.00
2023-01-15T18:24:27.097Z,7.00
2023-01-15T18:26:55.659Z,7.00
2023-01-15T18:29:22.586Z,7.00
2023-01-15T18:35:11.167Z,7.10
2023-01-15T18:37:38.632Z,6.90
2023-01-15T18:40:07.197Z,7.10
2023-01-15T18:42:55.842Z,7.00
2023-01-15T18:45:41.342Z,7.10
2023-01-15T18:48:08.439Z,7.10
2023-01-15T18:50:36.352Z,7.00
2023-01-15T18:53:04.299Z,7.00
2023-01-15T18:55:31.506Z,6.80
2023-01-15T18:57:59.269Z,6.90
2023-01-15T19:00:26.710Z,6.80
2023-01-15T19:02:54.139Z,6.90
2023-01-15T19:05:21.754Z,6.90
2023-01-15T19:07:51.621Z,6.90
2023-01-15T19:10:19.126Z,6.90
2023-01-15T19:12:46.831Z,6.80
2023-01-15T19:15:35.171Z,6.70
2023-01-15T19:18:22.367Z,6.50
2023-01-15T19:20:50.052Z,6.50
2023-01-15T19:23:20.540Z,6.30
2023-01-15T19:31:38.424Z,6.20
2023-01-15T19:34:32.278Z,6.10
2023-01-15T19:36:58.652Z,6.00
2023-01-15T19:39:27.750Z,6.00
2023-01-15T19:42:13.872Z,5.80
2023-01-15T19:45:11.556Z,6.00
2023-01-15T19:47:58.718Z,6.00
2023-01-15T19:50:33.033Z,5.90
2023-01-15T19:53:02.025Z,5.90
2023-01-15T19:55:32.428Z,5.80
2023-01-15T20:00:31.181Z,5.90
2023-01-15T20:02:58.763Z,5.90
2023-01-15T20:05:27.083Z,6.10
2023-01-15T20:07:55.181Z,6.10
2023-01-15T20:10:25.028Z,6.10
2023-01-15T20:13:10.668Z,6.10
2023-01-15T20:18:30.962Z,5.90
2023-01-15T20:21:12.054Z,6.10
2023-01-15T20:28:45.236Z,6.00
2023-01-15T20:31:18.774Z,5.90
2023-01-15T23:21:33.211Z,6.40
2023-01-15T23:24:02.654Z,6.20
2023-01-15T23:26:34.417Z,6.20
2023-01-15T23:31:32.426Z,6.50
2023-01-15T23:34:28.733Z,6.40
2023-01-15T23:36:57.031Z,6.50
2023-01-15T23:39:25.663Z,6.40
2023-01-15T23:42:12.906Z,6.40
2023-01-15T23:45:01.015Z,6.30
2023-01-15T23:50:20.692Z,6.30
2023-01-15T23:56:01.868Z,6.30
2023-01-15T23:58:32.329Z,6.20
